Time;durP1;ratioP1;P1;durP2;ratioP2;P2;SDS_P1;SDS_P2;PMS_P1;PMS_P2;Temp;Humidity;BMP_temperature;BMP_pressure;BME280_temperature;BME280_humidity;BME280_pressure;Samples;Min_cycle;Max_cycle;Signal;HPM_P1;HPM_P2
2022/03/16 00:02:24;;;;;;;7.77;3.87;;;;;;;10.40;91.09;95971.53;4376463;32;20201;-59
2022/03/16 00:04:50;;;;;;;7.17;3.93;;;;;;;10.43;90.57;95974.44;4362961;32;20390;-58
2022/03/16 00:07:17;;;;;;;8.17;3.87;;;;;;;10.48;90.45;95982.38;4362082;32;20238;-58
2022/03/16 00:09:43;;;;;;;10.33;4.50;;;;;;;10.41;90.41;95973.12;4362882;32;20289;-59
2022/03/16 00:12:09;;;;;;;5.50;3.63;;;;;;;10.32;90.92;95984.31;4376731;32;20322;-59
2022/03/16 00:14:35;;;;;;;9.43;4.20;;;;;;;10.38;91.22;95986.97;4362481;32;20273;-58
2022/03/16 00:17:00;;;;;;;6.80;4.13;;;;;;;10.44;91.17;95991.13;4377496;32;20329;-59
2022/03/16 00:19:26;;;;;;;7.33;4.20;;;;;;;10.43;90.80;95993.00;4376787;32;20284;-59
2022/03/16 00:21:51;;;;;;;10.23;4.90;;;;;;;10.40;91.06;95995.41;4382315;32;20194;-59
2022/03/16 00:24:16;;;;;;;9.73;4.23;;;;;;;10.32;91.08;95989.63;4369418;32;20173;-58
2022/03/16 00:26:42;;;;;;;10.73;5.10;;;;;;;10.32;90.87;95994.94;4362070;32;20176;-58
2022/03/16 00:29:07;;;;;;;8.53;5.07;;;;;;;10.20;90.83;96001.63;4374498;32;20192;-59
2022/03/16 00:31:34;;;;;;;8.67;5.37;;;;;;;10.13;91.56;96001.91;4376695;32;20223;-58
2022/03/16 00:34:00;;;;;;;8.63;5.33;;;;;;;10.23;91.38;96001.06;4375911;32;20252;-60
2022/03/16 00:36:25;;;;;;;9.63;5.50;;;;;;;10.10;90.94;96002.44;4381446;32;20288;-58
2022/03/16 00:38:51;;;;;;;8.10;5.70;;;;;;;10.08;91.19;96003.78;4385460;32;20303;-59
2022/03/16 00:41:17;;;;;;;9.50;5.77;;;;;;;10.02;91.34;96003.00;4376832;32;20215;-59
2022/03/16 00:43:43;;;;;;;11.13;5.47;;;;;;;9.88;91.70;96009.97;4386547;32;20203;-58
2022/03/16 00:46:08;;;;;;;8.53;5.60;;;;;;;9.91;91.72;96010.22;4359852;32;20204;-59
2022/03/16 00:48:34;;;;;;;13.10;6.07;;;;;;;9.86;91.83;96004.94;4374095;32;20302;-59
2022/03/16 00:50:59;;;;;;;10.20;5.70;;;;;;;9.90;91.21;96010.50;4362191;32;20228;-59
2022/03/16 00:53:24;;;;;;;10.10;6.23;;;;;;;9.73;92.11;96012.69;4388107;32;20237;-58
2022/03/16 00:55:50;;;;;;;6.77;6.07;;;;;;;9.76;92.13;96018.25;4362730;32;20265;-59
2022/03/16 00:58:15;;;;;;;9.63;6.13;;;;;;;9.76;91.86;96014.81;4369371;32;20191;-58
2022/03/16 01:00:40;;;;;;;6.77;6.17;;;;;;;9.65;92.62;96001.56;4391171;32;20212;-59
2022/03/16 01:03:06;;;;;;;9.27;6.97;;;;;;;9.73;92.61;95994.94;4366994;32;20200;-58
2022/03/16 01:05:31;;;;;;;9.23;8.10;;;;;;;9.80;92.35;96002.56;4373670;32;20231;-59
2022/03/16 01:07:56;;;;;;;8.30;7.60;;;;;;;9.81;92.07;95999.66;4377067;32;20189;-58
2022/03/16 01:10:22;;;;;;;10.13;8.40;;;;;;;9.80;92.57;95997.28;4378912;32;20177;-58
2022/03/16 01:12:47;;;;;;;14.73;9.10;;;;;;;9.56;94.08;95997.88;4376742;32;20236;-59
2022/03/16 01:15:13;;;;;;;13.83;9.23;;;;;;;9.62;93.86;95991.50;4372007;32;20185;-59
2022/03/16 01:17:38;;;;;;;13.13;9.90;;;;;;;9.55;94.56;95991.03;4379340;32;20212;-58
2022/03/16 01:20:04;;;;;;;11.60;9.33;;;;;;;9.59;94.80;95996.56;4376122;32;20194;-58
2022/03/16 01:22:29;;;;;;;13.20;10.30;;;;;;;9.59;94.63;95994.69;4361479;32;20249;-61
2022/03/16 01:24:55;;;;;;;10.70;9.60;;;;;;;9.63;95.07;95998.41;4365837;32;20291;-58
2022/03/16 01:27:20;;;;;;;12.53;11.23;;;;;;;9.63;95.20;95994.94;4370940;32;20199;-58
2022/03/16 01:29:45;;;;;;;10.43;9.60;;;;;;;9.56;95.37;95999.75;4389384;32;20181;-59
2022/03/16 01:32:10;;;;;;;11.83;10.73;;;;;;;9.68;95.57;95994.16;4375228;32;20245;-58
2022/03/16 01:34:36;;;;;;;11.63;10.43;;;;;;;9.56;95.87;95995.22;4375863;32;20184;-58
2022/03/16 01:37:03;;;;;;;14.57;11.70;;;;;;;9.59;95.88;95988.59;4383037;32;20243;-59
2022/03/16 01:39:29;;;;;;;12.37;11.30;;;;;;;9.59;95.73;95980.66;4375912;32;20181;-60
2022/03/16 01:41:54;;;;;;;12.97;11.43;;;;;;;9.58;95.91;95989.66;4374433;32;20376;-58
2022/03/16 01:44:44;;;;;;;12.47;11.27;;;;;;;9.58;95.54;95990.47;4359580;32;20176;-59
2022/03/16 01:47:10;;;;;;;12.03;10.93;;;;;;;9.51;96.11;95994.47;4371374;32;20189;-59
2022/03/16 01:49:36;;;;;;;12.17;11.07;;;;;;;9.58;95.89;95985.16;4378345;32;20292;-59
2022/03/16 01:52:02;;;;;;;12.63;11.53;;;;;;;9.59;95.78;95997.34;4367031;32;20315;-59
2022/03/16 01:54:27;;;;;;;13.57;11.60;;;;;;;9.66;95.52;95989.12;4363117;32;20189;-58
2022/03/16 01:56:52;;;;;;;12.97;11.17;;;;;;;9.63;95.51;95994.94;4384898;32;20285;-58
2022/03/16 01:59:18;;;;;;;12.77;11.47;;;;;;;9.58;95.67;95990.47;4385230;32;20207;-59
2022/03/16 02:01:43;;;;;;;12.93;11.67;;;;;;;9.70;94.98;95987.53;4385965;32;20193;-58
2022/03/16 02:04:08;;;;;;;12.83;11.73;;;;;;;9.70;95.44;95987.53;4376782;32;20184;-58
2022/03/16 02:06:34;;;;;;;12.70;11.50;;;;;;;9.53;95.90;95993.16;4364151;32;20211;-58
2022/03/16 02:08:59;;;;;;;13.00;11.90;;;;;;;9.51;96.06;95995.28;4366056;32;20212;-59
2022/03/16 02:11:24;;;;;;;17.87;13.57;;;;;;;9.37;96.48;95994.22;4382484;32;20188;-59
2022/03/16 02:13:50;;;;;;;14.33;12.87;;;;;;;9.32;97.17;95988.16;4364473;32;20196;-60
2022/03/16 02:16:16;;;;;;;14.30;13.00;;;;;;;9.39;96.93;96001.91;4363888;32;20254;-60
2022/03/16 02:18:41;;;;;;;13.90;12.67;;;;;;;9.34;97.16;95994.78;4377544;32;20316;-59
2022/03/16 02:21:07;;;;;;;15.30;13.67;;;;;;;9.26;97.51;96001.41;4377977;32;20203;-59
2022/03/16 02:23:32;;;;;;;14.43;12.87;;;;;;;9.29;97.65;96000.88;4377401;32;20254;-59
2022/03/16 02:25:58;;;;;;;18.77;13.27;;;;;;;9.27;97.51;95999.56;4378892;32;20264;-59
2022/03/16 02:28:24;;;;;;;17.33;13.80;;;;;;;9.33;97.54;96003.78;4364041;32;20200;-58
2022/03/16 02:30:50;;;;;;;15.57;13.97;;;;;;;9.32;97.24;96002.19;4363919;32;20268;-59
2022/03/16 02:33:15;;;;;;;14.77;13.40;;;;;;;9.32;97.45;96007.50;4374136;32;20360;-59
2022/03/16 02:35:41;;;;;;;16.90;14.50;;;;;;;9.23;97.48;96003.78;4368300;32;20282;-59
2022/03/16 02:38:07;;;;;;;14.47;13.07;;;;;;;9.25;97.78;96002.47;4361493;32;20213;-58
2022/03/16 02:40:33;;;;;;;16.87;13.33;;;;;;;9.33;97.55;96014.37;4377719;32;20188;-59
2022/03/16 02:42:59;;;;;;;15.13;13.73;;;;;;;9.40;97.46;96008.78;4379380;32;20189;-59
2022/03/16 02:45:24;;;;;;;15.50;13.77;;;;;;;9.36;97.37;96010.38;4382941;32;20202;-59
2022/03/16 02:47:49;;;;;;;17.60;15.77;;;;;;;9.33;97.45;96009.09;4366879;32;20291;-58
2022/03/16 02:50:16;;;;;;;15.50;13.90;;;;;;;9.37;97.26;96017.25;4379978;32;20196;-58
2022/03/16 02:52:43;;;;;;;17.00;15.00;;;;;;;9.46;96.46;96013.03;4381998;32;20227;-58
2022/03/16 02:55:09;;;;;;;15.47;13.87;;;;;;;9.31;97.02;96024.44;4374812;32;20326;-59
2022/03/16 02:57:35;;;;;;;17.60;15.70;;;;;;;9.22;98.08;96023.37;4376014;32;20293;-58
2022/03/16 03:00:03;;;;;;;17.43;15.70;;;;;;;9.18;98.50;96025.75;4377438;32;20193;-59
2022/03/16 03:02:28;;;;;;;17.20;15.50;;;;;;;9.18;98.49;96024.97;4365472;32;20273;-59
2022/03/16 03:04:54;;;;;;;19.80;16.63;;;;;;;9.27;98.31;96031.31;4391237;32;20337;-59
2022/03/16 03:07:19;;;;;;;18.60;16.67;;;;;;;9.32;98.28;96035.81;4369758;32;20260;-59
2022/03/16 03:09:44;;;;;;;20.27;15.97;;;;;;;9.34;97.89;96036.34;4379379;32;20189;-59
2022/03/16 03:12:10;;;;;;;17.93;16.23;;;;;;;9.28;97.90;96032.91;4363274;32;20193;-59
2022/03/16 03:14:35;;;;;;;18.00;16.27;;;;;;;9.29;97.84;96029.22;4377436;32;20188;-59
2022/03/16 03:17:01;;;;;;;18.20;16.47;;;;;;;9.12;98.14;96034.00;4369885;32;20185;-58
2022/03/16 03:19:27;;;;;;;19.73;17.47;;;;;;;9.10;98.37;96034.25;4364619;32;20238;-58
2022/03/16 03:21:52;;;;;;;18.23;16.33;;;;;;;9.13;97.83;96038.22;4368863;32;20185;-58
2022/03/16 03:24:18;;;;;;;17.83;16.00;;;;;;;9.08;97.28;96036.38;4376849;32;20255;-59
2022/03/16 03:26:43;;;;;;;18.60;16.63;;;;;;;8.94;97.62;96044.03;4374376;32;20204;-60
2022/03/16 03:29:09;;;;;;;20.63;18.50;;;;;;;8.97;97.71;96048.00;4363042;32;20184;-58
2022/03/16 03:31:34;;;;;;;25.07;18.83;;;;;;;8.89;97.75;96046.69;4384581;32;20176;-58
2022/03/16 03:34:00;;;;;;;21.07;18.00;;;;;;;8.86;98.09;96054.38;4363457;32;20238;-58
2022/03/16 03:36:26;;;;;;;19.27;16.33;;;;;;;8.89;97.91;96046.69;4393101;32;20210;-58
2022/03/16 03:38:51;;;;;;;19.10;16.77;;;;;;;8.88;98.25;96055.69;4364935;32;20356;-57
2022/03/16 03:41:16;;;;;;;21.73;17.53;;;;;;;8.82;98.46;96050.66;4376720;32;20338;-58
2022/03/16 03:43:42;;;;;;;20.83;18.70;;;;;;;8.90;98.37;96047.50;4375726;32;20233;-58
2022/03/16 03:46:10;;;;;;;21.30;17.53;;;;;;;8.93;97.95;96045.13;4363173;32;20199;-59
2022/03/16 03:48:35;;;;;;;23.33;18.47;;;;;;;8.91;98.02;96051.72;4379100;32;20244;-59
2022/03/16 03:51:00;;;;;;;20.40;18.30;;;;;;;8.99;97.66;96060.97;4351253;32;20294;-60
2022/03/16 03:53:25;;;;;;;20.33;18.33;;;;;;;8.93;97.68;96062.84;4364713;32;20189;-59
2022/03/16 03:55:51;;;;;;;20.77;18.57;;;;;;;8.87;97.94;96062.03;4389755;32;20248;-58
2022/03/16 03:58:16;;;;;;;21.07;18.37;;;;;;;8.83;98.33;96068.13;4379009;32;20185;-58
2022/03/16 04:00:41;;;;;;;22.60;19.07;;;;;;;8.71;98.99;96062.28;4372903;32;20242;-58
2022/03/16 04:03:07;;;;;;;19.97;17.87;;;;;;;8.73;98.71;96070.75;4363779;32;20184;-59
2022/03/16 04:05:32;;;;;;;19.63;17.63;;;;;;;8.85;98.00;96061.50;4382709;32;20192;-59
2022/03/16 04:07:58;;;;;;;16.67;14.97;;;;;;;8.83;97.89;96074.22;4368170;32;20204;-58
2022/03/16 04:10:24;;;;;;;16.27;14.63;;;;;;;8.71;97.35;96075.53;4388939;32;20189;-59
2022/03/16 04:12:49;;;;;;;15.13;13.73;;;;;;;8.81;96.78;96080.81;4376326;32;20378;-59
2022/03/16 04:15:15;;;;;;;15.13;13.73;;;;;;;8.88;96.50;96079.50;4365268;32;20185;-59
2022/03/16 04:17:40;;;;;;;15.20;13.77;;;;;;;8.76;95.96;96084.25;4377124;32;20296;-58
2022/03/16 04:20:07;;;;;;;15.00;13.60;;;;;;;8.66;96.75;96089.53;4362212;32;20218;-59
2022/03/16 04:22:32;;;;;;;15.20;13.80;;;;;;;8.58;97.29;96095.31;4361976;32;20293;-58
2022/03/16 04:24:58;;;;;;;15.20;13.80;;;;;;;8.48;96.70;96103.25;4378085;32;20277;-59
2022/03/16 04:27:24;;;;;;;15.70;14.20;;;;;;;8.40;96.67;96101.09;4362458;32;20181;-58
2022/03/16 04:29:49;;;;;;;16.07;14.47;;;;;;;8.40;96.05;96101.88;4362238;32;20181;-58
2022/03/16 04:32:14;;;;;;;16.80;15.20;;;;;;;8.22;96.94;96105.75;4379750;32;20208;-58
2022/03/16 04:34:40;;;;;;;16.33;14.67;;;;;;;8.27;97.12;96108.44;4381059;32;20188;-59
2022/03/16 04:37:05;;;;;;;16.10;14.60;;;;;;;8.24;96.45;96108.16;4391563;32;20188;-58
2022/03/16 04:39:32;;;;;;;15.77;14.17;;;;;;;8.33;96.06;96111.88;4378260;32;20192;-58
2022/03/16 04:41:57;;;;;;;14.97;13.50;;;;;;;8.13;95.88;96119.72;4388124;32;20208;-58
2022/03/16 04:44:23;;;;;;;16.27;14.70;;;;;;;8.20;95.55;96121.06;4362523;32;20301;-59
2022/03/16 04:46:48;;;;;;;15.77;14.27;;;;;;;8.28;95.89;96125.88;4363997;32;20256;-58
2022/03/16 04:49:13;;;;;;;15.53;14.10;;;;;;;8.23;95.60;96127.69;4378221;32;20204;-59
2022/03/16 04:51:40;;;;;;;15.87;14.30;;;;;;;8.29;95.25;96131.97;4374881;32;20185;-59
2022/03/16 04:54:06;;;;;;;15.60;14.20;;;;;;;8.23;95.13;96128.50;4361494;32;20193;-59
2022/03/16 04:56:31;;;;;;;16.20;14.67;;;;;;;8.14;95.69;96132.66;4375650;32;20323;-59
2022/03/16 04:58:56;;;;;;;18.63;16.63;;;;;;;8.21;95.38;96135.88;4378295;32;20177;-59
2022/03/16 05:01:22;;;;;;;17.80;16.00;;;;;;;8.05;96.21;96131.59;4374470;32;20196;-58
2022/03/16 05:03:47;;;;;;;19.77;16.97;;;;;;;8.03;96.38;96138.97;4381982;32;20193;-58
2022/03/16 05:06:13;;;;;;;18.43;16.53;;;;;;;7.91;96.61;96143.63;4362379;32;20208;-58
2022/03/16 05:08:38;;;;;;;18.93;16.70;;;;;;;7.93;96.87;96141.53;4374687;32;20200;-58
2022/03/16 05:11:09;;;;;;;19.70;17.37;;;;;;;7.70;95.11;96155.12;4381070;32;20217;-58
2022/03/16 05:13:34;;;;;;;22.67;16.10;;;;;;;7.71;94.05;96162.00;4380946;32;20200;-59
2022/03/16 05:16:00;;;;;;;18.47;16.57;;;;;;;7.67;92.55;96166.22;4379312;32;20373;-62
2022/03/16 05:18:26;;;;;;;20.73;17.57;;;;;;;7.72;91.54;96168.88;4374052;32;20256;-60
2022/03/16 05:20:51;;;;;;;20.60;18.37;;;;;;;7.58;91.86;96168.53;4370737;32;20244;-59
2022/03/16 05:23:17;;;;;;;19.93;17.83;;;;;;;7.61;92.17;96175.16;4364690;32;20276;-59
2022/03/16 05:25:42;;;;;;;20.03;17.73;;;;;;;7.47;92.12;96172.94;4355616;32;20215;-59
2022/03/16 05:28:07;;;;;;;19.27;17.23;;;;;;;7.58;91.79;96179.88;4381946;32;20192;-59
2022/03/16 05:30:33;;;;;;;20.03;17.63;;;;;;;7.68;90.84;96181.00;4378635;32;20197;-59
2022/03/16 05:33:03;;;;;;;18.47;16.60;;;;;;;7.72;90.82;96185.50;4363644;32;20189;-59
2022/03/16 05:35:30;;;;;;;20.13;18.03;;;;;;;7.88;90.28;96189.09;4370820;32;20227;-58
2022/03/16 05:37:55;;;;;;;19.90;17.80;;;;;;;7.84;89.51;96185.34;4379426;32;20338;-60
2022/03/16 05:40:21;;;;;;;20.33;18.13;;;;;;;7.69;90.09;96198.44;4378052;32;20278;-59
2022/03/16 05:42:46;;;;;;;20.23;18.03;;;;;;;7.53;90.58;96202.78;4364081;32;20215;-58
2022/03/16 05:45:12;;;;;;;20.30;17.77;;;;;;;7.50;90.73;96193.53;4379168;32;20216;-59
2022/03/16 05:47:38;;;;;;;20.07;17.97;;;;;;;7.41;91.80;96202.97;4376485;32;20196;-58
2022/03/16 05:50:05;;;;;;;19.23;17.23;;;;;;;7.53;91.88;96208.88;4377694;32;20203;-58
2022/03/16 05:52:32;;;;;;;21.33;18.73;;;;;;;7.43;90.87;96214.09;4364536;32;20204;-62
2022/03/16 05:54:58;;;;;;;18.80;16.93;;;;;;;7.38;90.17;96206.13;4368373;32;20328;-58
2022/03/16 05:57:24;;;;;;;21.10;18.47;;;;;;;7.18;91.01;96216.47;4380846;32;20287;-58
2022/03/16 05:59:50;;;;;;;20.97;18.50;;;;;;;7.35;91.82;96222.44;4361549;32;20286;-58
2022/03/16 06:02:15;;;;;;;21.40;18.23;;;;;;;7.42;91.26;96219.63;4362626;32;20236;-58
2022/03/16 06:04:43;;;;;;;20.17;18.07;;;;;;;7.43;91.35;96219.38;4367706;32;20189;-59
2022/03/16 06:07:09;;;;;;;21.47;19.07;;;;;;;7.32;91.63;96222.94;4375693;32;20177;-58
2022/03/16 06:09:34;;;;;;;19.57;17.53;;;;;;;7.28;91.33;96213.94;4374671;32;20296;-58
2022/03/16 06:12:01;;;;;;;21.57;18.43;;;;;;;7.20;91.07;96227.59;4366268;32;20260;-58
2022/03/16 06:14:27;;;;;;;20.83;18.63;;;;;;;7.10;91.51;96220.34;4370288;32;20212;-59
2022/03/16 06:16:52;;;;;;;22.67;19.03;;;;;;;7.12;91.81;96222.75;4356205;32;20282;-59
2022/03/16 06:19:19;;;;;;;20.37;18.23;;;;;;;7.10;92.03;96227.47;4362066;32;20178;-59
2022/03/16 06:21:44;;;;;;;19.93;17.83;;;;;;;7.12;92.10;96222.75;4368385;32;20199;-59
2022/03/16 06:24:10;;;;;;;21.07;18.87;;;;;;;7.22;91.16;96225.50;4381877;32;20277;-58
2022/03/16 06:26:35;;;;;;;19.70;17.60;;;;;;;7.41;90.86;96228.56;4376675;32;20184;-58
2022/03/16 06:29:00;;;;;;;21.03;18.43;;;;;;;7.58;89.95;96235.31;4371133;32;20174;-60
2022/03/16 06:31:26;;;;;;;19.83;17.20;;;;;;;7.52;88.72;96238.97;4364894;32;20229;-58
2022/03/16 06:33:51;;;;;;;19.50;16.67;;;;;;;7.65;88.94;96231.69;4358548;32;20181;-59
2022/03/16 06:36:16;;;;;;;19.17;17.13;;;;;;;7.79;88.38;96236.28;4367864;32;20189;-58
2022/03/16 06:38:42;;;;;;;18.80;16.80;;;;;;;7.72;88.36;96229.63;4367993;32;20221;-59
2022/03/16 06:41:13;;;;;;;19.03;17.03;;;;;;;7.94;87.59;96243.53;4361261;32;20189;-58
2022/03/16 06:43:38;;;;;;;19.90;17.80;;;;;;;7.87;87.82;96245.59;4373357;32;20204;-60
2022/03/16 06:46:10;;;;;;;18.97;16.97;;;;;;;7.80;87.50;96245.81;4371248;32;20281;-58
2022/03/16 06:48:35;;;;;;;17.70;15.90;;;;;;;7.71;87.67;96247.31;4370068;32;20266;-59
2022/03/16 06:51:01;;;;;;;19.53;17.53;;;;;;;7.68;87.81;96252.31;4366852;32;20282;-59
2022/03/16 06:53:28;;;;;;;18.43;16.53;;;;;;;7.70;86.47;96252.84;4360467;32;20204;-58
2022/03/16 06:55:53;;;;;;;18.70;16.33;;;;;;;7.73;86.34;96249.69;4362530;32;20199;-59
2022/03/16 06:58:19;;;;;;;19.57;17.00;;;;;;;7.59;86.82;96254.59;4368873;32;20343;-59
2022/03/16 07:00:44;;;;;;;19.37;17.03;;;;;;;7.56;86.46;96255.91;4373334;32;20207;-58
2022/03/16 07:03:09;;;;;;;19.00;17.03;;;;;;;7.42;87.13;96265.28;4373535;32;20190;-58
2022/03/16 07:05:38;;;;;;;20.53;18.27;;;;;;;7.59;87.23;96265.97;4372557;32;20201;-60
2022/03/16 07:08:11;;;;;;;19.60;17.30;;;;;;;7.67;86.90;96269.22;4370386;32;20231;-58
2022/03/16 07:10:38;;;;;;;18.83;16.93;;;;;;;7.63;86.96;96263.63;4364101;32;20360;-59
2022/03/16 07:13:04;;;;;;;19.57;16.97;;;;;;;7.86;86.42;96271.22;4372452;32;20307;-58
2022/03/16 07:15:34;;;;;;;62.57;8.63;;;;;;;7.96;85.97;96270.47;4367545;32;20286;-53
2022/03/16 07:18:03;;;;;;;32.03;10.90;;;;;;;9.76;92.13;96261.22;4360428;32;20180;-52
2022/03/16 07:20:30;;;;;;;21.93;12.77;;;;;;;11.14;81.80;96265.19;4365437;32;20324;-51
2022/03/16 07:23:09;;;;;;;14.63;13.13;;;;;;;12.11;72.71;96260.81;4359176;32;20285;-55
2022/03/16 07:25:40;;;;;;;18.13;13.63;;;;;;;12.63;68.64;96275.25;4361378;32;20390;-54
2022/03/16 07:28:07;;;;;;;16.63;14.37;;;;;;;13.16;64.95;96272.53;4361909;32;20199;-56
2022/03/16 07:30:36;;;;;;;15.83;14.43;;;;;;;13.33;62.80;96273.63;4365824;32;20181;-53
2022/03/16 07:33:02;;;;;;;16.80;15.20;;;;;;;13.42;61.70;96273.78;4361328;32;20189;-53
2022/03/16 07:35:28;;;;;;;16.07;14.67;;;;;;;13.62;60.52;96280.72;4364947;32;20230;-49
2022/03/16 07:37:57;;;;;;;16.63;15.10;;;;;;;13.66;60.11;96271.84;4370446;32;20254;-49
2022/03/16 07:40:24;;;;;;;16.33;14.93;;;;;;;13.86;59.38;96275.31;4366262;32;20268;-52
2022/03/16 07:42:52;;;;;;;16.30;14.80;;;;;;;13.84;58.92;96266.78;4361464;32;20200;-48
2022/03/16 07:45:19;;;;;;;14.87;11.50;;;;;;;13.93;58.44;96275.72;4351573;32;20197;-53
2022/03/16 07:47:46;;;;;;;13.60;11.50;;;;;;;14.12;62.01;96276.50;4364794;32;20177;-53
2022/03/16 07:50:13;;;;;;;20.20;13.93;;;;;;;14.22;63.39;96278.19;4360740;32;20180;-50
2022/03/16 07:52:39;;;;;;;17.47;15.87;;;;;;;14.19;60.49;96282.22;4359047;32;20235;-51
2022/03/16 07:55:06;;;;;;;16.67;15.20;;;;;;;11.08;65.69;96288.31;4357194;32;20189;-57
2022/03/16 07:57:32;;;;;;;17.40;15.70;;;;;;;10.57;68.83;96293.00;4361052;32;20204;-58
2022/03/16 07:59:57;;;;;;;19.90;16.87;;;;;;;10.19;70.14;96297.78;4367815;32;20185;-59
2022/03/16 08:02:22;;;;;;;18.10;16.40;;;;;;;9.36;73.47;96299.78;4360096;32;20182;-58
2022/03/16 08:04:48;;;;;;;17.77;16.00;;;;;;;8.76;76.79;96306.44;4360661;32;20205;-58
2022/03/16 08:07:13;;;;;;;19.03;16.87;;;;;;;8.54;78.68;96298.66;4361650;32;20212;-59
2022/03/16 08:09:38;;;;;;;20.20;18.07;;;;;;;8.39;79.82;96300.41;4361855;32;20185;-57
2022/03/16 08:12:05;;;;;;;19.07;17.27;;;;;;;8.33;80.49;96296.13;4360822;32;20197;-58
2022/03/16 08:14:30;;;;;;;18.77;16.97;;;;;;;8.20;80.86;96292.88;4362525;32;20208;-59
2022/03/16 08:16:55;;;;;;;17.83;16.13;;;;;;;8.09;80.80;96291.22;4361235;32;20331;-60
2022/03/16 08:19:21;;;;;;;19.63;17.57;;;;;;;8.16;81.61;96290.97;4360928;32;20287;-58
2022/03/16 08:21:47;;;;;;;18.57;16.67;;;;;;;8.26;81.25;96291.06;4361268;32;20234;-58
2022/03/16 08:24:13;;;;;;;19.00;17.10;;;;;;;7.96;81.57;96294.25;4359280;32;20189;-58
2022/03/16 08:26:39;;;;;;;18.07;16.27;;;;;;;8.16;81.86;96291.78;4360942;32;20273;-59
2022/03/16 08:29:04;;;;;;;19.47;17.43;;;;;;;8.30;81.44;96286.06;4360788;32;20404;-59
2022/03/16 08:31:30;;;;;;;19.27;17.30;;;;;;;8.19;81.32;96285.97;4362307;32;20275;-58
2022/03/16 08:33:56;;;;;;;18.97;16.97;;;;;;;8.08;82.16;96289.63;4365345;32;20203;-59
2022/03/16 08:36:22;;;;;;;19.50;17.40;;;;;;;8.24;81.84;96291.31;4359190;32;22289;-59
2022/03/16 08:38:47;;;;;;;18.33;16.47;;;;;;;8.18;82.08;96305.53;4359988;32;20281;-60
2022/03/16 08:41:12;;;;;;;18.30;16.43;;;;;;;8.21;81.91;96302.38;4359153;32;20286;-59
2022/03/16 08:43:38;;;;;;;19.07;16.97;;;;;;;8.31;81.45;96308.81;4357046;32;20193;-59
2022/03/16 08:46:13;;;;;;;20.03;17.63;;;;;;;8.29;81.52;96306.41;4359646;32;20238;-57
2022/03/16 08:48:38;;;;;;;19.67;17.67;;;;;;;8.23;81.51;96308.22;4351832;32;20218;-59
2022/03/16 08:51:13;;;;;;;19.90;16.30;;;;;;;8.49;80.93;96303.13;4360528;32;20293;-59
2022/03/16 08:53:39;;;;;;;19.27;17.37;;;;;;;8.47;80.95;96302.59;4367871;32;20200;-59
2022/03/16 08:56:13;;;;;;;20.87;16.97;;;;;;;8.41;80.67;96303.59;4359354;32;20300;-59
2022/03/16 08:58:39;;;;;;;19.17;17.17;;;;;;;8.12;81.82;96301.25;4360456;32;20303;-59
2022/03/16 09:01:05;;;;;;;21.43;17.37;;;;;;;8.19;81.99;96312.41;4372506;32;20319;-57
2022/03/16 09:03:41;;;;;;;19.13;16.73;;;;;;;8.19;82.00;96312.41;4386764;32;20180;-56
2022/03/16 09:06:13;;;;;;;18.43;16.57;;;;;;;8.33;81.70;96312.78;4376112;32;20299;-58
2022/03/16 09:08:38;;;;;;;19.57;17.47;;;;;;;8.25;82.04;96315.91;4372985;32;20211;-58
2022/03/16 09:11:04;;;;;;;19.77;17.70;;;;;;;8.10;82.28;96319.22;4360688;32;20273;-58
2022/03/16 09:13:29;;;;;;;19.67;17.57;;;;;;;8.19;82.68;96311.63;4358749;32;20199;-58
2022/03/16 09:15:56;;;;;;;19.07;17.17;;;;;;;8.31;82.35;96314.09;4383236;32;20214;-60
2022/03/16 09:18:23;;;;;;;19.00;17.00;;;;;;;8.34;81.63;96311.75;4390862;32;20387;-59
2022/03/16 09:20:48;;;;;;;20.40;18.30;;;;;;;8.45;81.55;96312.63;4377612;32;20268;-60
2022/03/16 09:23:14;;;;;;;18.00;16.07;;;;;;;8.44;81.39;96298.59;4361994;32;20298;-60
2022/03/16 09:25:41;;;;;;;19.03;17.07;;;;;;;8.42;81.61;96302.56;4380314;32;20244;-58
2022/03/16 09:28:08;;;;;;;18.03;16.13;;;;;;;8.40;81.79;96308.09;4376772;32;20211;-60
2022/03/16 09:30:34;;;;;;;17.63;15.93;;;;;;;8.54;80.88;96306.59;4380253;32;20335;-59
2022/03/16 09:33:00;;;;;;;18.70;16.83;;;;;;;8.50;80.42;96302.88;4362883;32;20301;-59
2022/03/16 09:35:27;;;;;;;17.80;15.90;;;;;;;8.52;80.51;96305.28;4371963;32;20203;-59
2022/03/16 09:37:54;;;;;;;18.40;16.53;;;;;;;8.49;80.52;96300.50;4374154;32;20441;-61
2022/03/16 09:40:19;;;;;;;17.87;16.07;;;;;;;8.49;81.19;96303.13;4373592;32;20284;-59
2022/03/16 09:42:46;;;;;;;19.60;17.60;;;;;;;8.58;81.10;96301.59;4361659;32;20291;-59
2022/03/16 09:45:17;;;;;;;18.40;16.63;;;;;;;8.69;81.43;96297.97;4385695;32;20173;-60
2022/03/16 09:47:44;;;;;;;17.00;15.00;;;;;;;8.75;81.18;96307.50;4390108;32;20284;-59
2022/03/16 09:50:10;;;;;;;21.30;19.25;;;;;;;8.93;80.32;96307.09;4382065;32;20153;-61
2022/03/16 09:52:35;;;;;;;18.87;16.97;;;;;;;8.78;80.64;96314.13;4372185;32;20181;-59
2022/03/16 09:55:03;;;;;;;17.17;15.47;;;;;;;8.81;79.65;96311.78;4362471;32;20200;-59
2022/03/16 09:57:28;;;;;;;16.50;14.90;;;;;;;8.68;80.09;96314.88;4385667;32;20189;-59
2022/03/16 09:59:54;;;;;;;16.40;14.73;;;;;;;8.56;80.98;96307.13;4387794;32;20323;-59
2022/03/16 10:02:21;;;;;;;18.30;16.50;;;;;;;8.78;80.24;96301.69;4372515;32;20199;-58
2022/03/16 10:04:47;;;;;;;16.70;15.10;;;;;;;8.49;80.45;96306.59;4373662;32;20188;-59
2022/03/16 10:07:13;;;;;;;17.43;15.63;;;;;;;8.38;81.17;96298.81;4361613;32;20353;-60
2022/03/16 10:15:18;;;;;;;16.63;14.93;;;;;;;8.61;80.93;96298.44;4375495;32;20310;-59
2022/03/16 10:17:48;;;;;;;17.40;15.60;;;;;;;8.66;80.91;96287.09;4362029;32;20324;-59
2022/03/16 10:20:32;;;;;;;16.80;15.20;;;;;;;8.58;80.99;96289.16;4364541;32;20325;-59
2022/03/16 10:23:05;;;;;;;16.60;14.90;;;;;;;8.71;80.58;96289.78;4364098;32;20276;-58
2022/03/16 10:25:43;;;;;;;16.30;14.60;;;;;;;8.80;80.21;96293.50;4378039;32;20357;-59
2022/03/16 10:28:16;;;;;;;15.63;14.17;;;;;;;8.93;79.73;96285.91;4382241;32;20267;-58
2022/03/16 10:31:15;;;;;;;16.53;14.87;;;;;;;8.94;79.46;96290.13;4385891;32;20329;-58
2022/03/16 10:33:50;;;;;;;15.70;14.10;;;;;;;8.94;79.22;96287.47;4378937;32;20291;-59
2022/03/16 10:36:20;;;;;;;18.40;14.80;;;;;;;8.83;79.87;96287.69;4375238;32;20291;-59
2022/03/16 10:38:46;;;;;;;15.90;14.30;;;;;;;8.89;80.08;96297.25;4383619;32;20304;-59
2022/03/16 10:46:34;;;;;;;16.60;14.93;;;;;;;9.16;79.46;96294.44;4380781;32;20297;-59
2022/03/16 10:46:46;;;;;;;16.17;14.67;;;;;;;9.64;77.77;96294.03;4378564;32;20335;-60
2022/03/16 10:49:12;;;;;;;15.83;14.17;;;;;;;9.51;78.35;96291.09;4363727;32;20376;-58
2022/03/16 10:51:39;;;;;;;16.07;14.40;;;;;;;9.62;78.44;96293.50;4363117;32;20308;-58
2022/03/16 10:54:05;;;;;;;18.87;16.07;;;;;;;9.28;79.34;96302.97;4371455;32;20315;-59
2022/03/16 10:56:31;;;;;;;18.80;16.63;;;;;;;9.12;80.39;96285.44;4379393;32;20300;-59
2022/03/16 10:58:58;;;;;;;16.80;15.10;;;;;;;9.33;80.18;96279.16;4382283;32;20312;-59
2022/03/16 11:01:26;;;;;;;17.83;16.07;;;;;;;9.10;80.51;96280.41;4381079;32;20300;-58
2022/03/16 11:03:52;;;;;;;17.33;15.60;;;;;;;9.24;80.46;96276.22;4376380;32;20287;-59
2022/03/16 11:06:23;;;;;;;17.33;15.60;;;;;;;9.21;80.71;96281.22;4370157;32;20294;-59
2022/03/16 11:08:49;;;;;;;17.43;15.60;;;;;;;8.89;81.64;96274.25;4377802;32;20326;-59
2022/03/16 11:14:04;;;;;;;17.67;15.87;;;;;;;9.08;81.87;96273.78;4369937;32;20316;-59
2022/03/16 11:16:31;;;;;;;17.43;15.73;;;;;;;9.41;80.58;96265.38;4372170;32;20297;-59
2022/03/16 11:19:03;;;;;;;17.40;15.27;;;;;;;9.37;80.60;96274.09;4383325;32;20333;-59
2022/03/16 11:21:53;;;;;;;18.20;16.40;;;;;;;9.64;80.34;96264.09;4383110;32;20303;-59
2022/03/16 11:24:22;;;;;;;19.10;16.73;;;;;;;9.86;79.33;96267.28;4365101;32;20327;-59
2022/03/16 11:27:10;;;;;;;19.30;17.40;;;;;;;9.56;79.96;96273.34;4373536;32;20288;-59
2022/03/16 11:30:06;;;;;;;19.10;17.13;;;;;;;9.55;80.23;96268.34;4367524;32;20276;-59
2022/03/16 11:32:44;;;;;;;17.33;15.60;;;;;;;9.60;80.21;96255.09;4366361;32;20300;-60
2022/03/16 11:35:12;;;;;;;17.43;15.73;;;;;;;9.58;79.60;96247.41;4376482;32;20347;-59
2022/03/16 11:37:50;;;;;;;17.63;15.83;;;;;;;9.51;79.88;96243.44;4372567;32;20268;-60